Time;durP1;ratioP1;P1;durP2;ratioP2;P2;SDS_P1;SDS_P2;PMS_P1;PMS_P2;Temp;Humidity;BMP_temperature;BMP_pressure;BME280_temperature;BME280_humidity;BME280_pressure;Samples;Min_cycle;Max_cycle;Signal;HPM_P1;HPM_P2
2022/10/14 00:01:30;;;;;;;;;;;12.90;93.00;;;;;;4992872;28;19917;-70
2022/10/14 00:03:55;;;;;;;;;;;12.90;93.10;;;;;;4991746;28;20709;-70
2022/10/14 00:06:25;;;;;;;;;;;12.90;93.10;;;;;;4986877;28;19924;-70
2022/10/14 00:08:51;;;;;;;;;;;12.90;93.10;;;;;;4994790;28;20000;-71
2022/10/14 00:11:18;;;;;;;;;;;12.90;93.10;;;;;;4987612;28;20359;-70
2022/10/14 00:13:44;;;;;;;;;;;12.90;93.10;;;;;;4991647;28;20743;-70
2022/10/14 00:16:19;;;;;;;;;;;12.90;93.10;;;;;;4989557;28;19918;-70
2022/10/14 00:18:46;;;;;;;;;;;12.90;93.10;;;;;;4989106;28;19913;-70
2022/10/14 00:21:11;;;;;;;;;;;12.80;93.10;;;;;;4988946;28;20017;-69
2022/10/14 00:23:37;;;;;;;;;;;12.90;93.10;;;;;;4993192;28;20349;-70
2022/10/14 00:26:02;;;;;;;;;;;12.90;93.00;;;;;;4994461;28;19917;-70
2022/10/14 00:28:28;;;;;;;;;;;12.80;93.10;;;;;;4992917;28;19914;-70
2022/10/14 00:31:00;;;;;;;;;;;12.90;93.10;;;;;;4995671;28;19957;-69
2022/10/14 00:33:26;;;;;;;;;;;12.80;93.00;;;;;;4992093;28;19973;-69
2022/10/14 00:36:01;;;;;;;;;;;12.80;93.10;;;;;;4991040;28;19921;-70
2022/10/14 00:38:27;;;;;;;;;;;12.90;93.10;;;;;;4984509;28;20008;-69
2022/10/14 00:40:53;;;;;;;;;;;12.80;93.10;;;;;;4987105;28;20000;-70
2022/10/14 00:43:19;;;;;;;;;;;12.80;93.10;;;;;;4991443;28;19921;-70
2022/10/14 00:45:45;;;;;;;;;;;12.80;93.10;;;;;;4993344;28;19925;-70
2022/10/14 00:48:11;;;;;;;;;;;12.80;93.10;;;;;;4992165;28;19930;-69
2022/10/14 00:50:38;;;;;;;;;;;12.80;93.10;;;;;;4995857;28;20788;-69
2022/10/14 00:53:03;;;;;;;;;;;12.80;93.10;;;;;;4993200;28;19968;-69
2022/10/14 00:55:29;;;;;;;;;;;12.80;93.30;;;;;;4989131;28;20247;-70
2022/10/14 00:57:54;;;;;;;;;;;12.80;93.20;;;;;;4984928;28;20267;-70
2022/10/14 01:00:20;;;;;;;;;;;12.80;93.10;;;;;;4992142;28;20000;-70
2022/10/14 01:02:46;;;;;;;;;;;12.80;93.10;;;;;;4988547;28;20551;-70
2022/10/14 01:05:13;;;;;;;;;;;12.80;93.10;;;;;;4988227;28;19986;-70
2022/10/14 01:07:48;;;;;;;;;;;12.80;93.10;;;;;;4984544;28;19917;-70
2022/10/14 01:10:19;;;;;;;;;;;12.80;93.10;;;;;;4991346;28;19929;-70
2022/10/14 01:12:49;;;;;;;;;;;12.80;93.10;;;;;;4984844;28;19922;-70
2022/10/14 01:15:20;;;;;;;;;;;12.80;93.10;;;;;;4987552;28;19918;-70
2022/10/14 01:17:46;;;;;;;;;;;12.80;93.10;;;;;;4993720;28;19936;-70
2022/10/14 01:20:30;;;;;;;;;;;12.80;93.10;;;;;;4988614;28;19911;-70
2022/10/14 01:22:56;;;;;;;;;;;12.80;93.10;;;;;;4993389;28;20659;-70
2022/10/14 01:25:21;;;;;;;;;;;12.80;93.10;;;;;;4988401;28;19913;-69
2022/10/14 01:27:53;;;;;;;;;;;12.80;93.10;;;;;;4989165;28;20410;-70
2022/10/14 01:30:19;;;;;;;;;;;12.80;93.10;;;;;;4982824;28;19964;-70
2022/10/14 01:32:54;;;;;;;;;;;12.80;93.10;;;;;;4986912;28;19918;-70
2022/10/14 01:35:25;;;;;;;;;;;12.80;93.10;;;;;;4991399;28;19924;-70
2022/10/14 01:37:54;;;;;;;;;;;12.80;93.10;;;;;;4993168;28;19913;-70
2022/10/14 01:40:28;;;;;;;;;;;12.80;93.00;;;;;;4985300;28;19917;-70
2022/10/14 01:42:54;;;;;;;;;;;12.80;93.10;;;;;;4986767;28;19924;-70
2022/10/14 01:45:21;;;;;;;;;;;12.80;93.10;;;;;;4983652;28;19918;-70
2022/10/14 01:47:50;;;;;;;;;;;12.80;93.00;;;;;;4989459;28;19923;-71
2022/10/14 01:50:17;;;;;;;;;;;12.70;93.10;;;;;;4987492;28;20010;-71
2022/10/14 01:52:58;;;;;;;;;;;12.80;93.10;;;;;;4990856;28;19914;-70
2022/10/14 01:55:26;;;;;;;;;;;12.80;93.10;;;;;;4984233;28;19918;-70
2022/10/14 01:57:54;;;;;;;;;;;12.80;93.40;;;;;;4986123;28;19917;-69
2022/10/14 02:00:20;;;;;;;;;;;12.80;93.10;;;;;;4986414;28;19917;-70
2022/10/14 02:02:45;;;;;;;;;;;12.70;93.10;;;;;;4999498;28;19914;-70
2022/10/14 02:05:17;;;;;;;;;;;12.80;93.10;;;;;;4998060;28;19917;-70
2022/10/14 02:07:45;;;;;;;;;;;12.70;93.10;;;;;;5003591;28;19914;-70
2022/10/14 02:10:17;;;;;;;;;;;12.70;93.10;;;;;;4992206;28;19984;-70
2022/10/14 02:12:48;;;;;;;;;;;12.70;93.10;;;;;;4991447;28;19921;-70
2022/10/14 02:15:26;;;;;;;;;;;12.80;93.10;;;;;;4986927;28;19916;-71
2022/10/14 02:18:16;;;;;;;;;;;12.70;93.10;;;;;;4992665;28;19914;-71
2022/10/14 02:20:42;;;;;;;;;;;12.70;93.10;;;;;;4987743;28;19940;-71
2022/10/14 02:23:11;;;;;;;;;;;12.70;93.10;;;;;;5001093;28;20397;-70
2022/10/14 02:25:38;;;;;;;;;;;12.70;93.10;;;;;;4990929;28;19949;-70
2022/10/14 02:28:06;;;;;;;;;;;12.70;93.10;;;;;;4997605;28;19921;-70
2022/10/14 02:30:33;;;;;;;;;;;12.70;93.10;;;;;;4992115;28;19914;-69
2022/10/14 02:33:00;;;;;;;;;;;12.70;93.10;;;;;;4996852;28;19918;-69
2022/10/14 02:35:26;;;;;;;;;;;12.70;93.10;;;;;;5001493;28;20359;-69
2022/10/14 02:37:53;;;;;;;;;;;12.70;93.10;;;;;;4994057;28;19925;-70
2022/10/14 02:40:25;;;;;;;;;;;12.70;93.10;;;;;;4998077;28;19924;-70
2022/10/14 02:42:50;;;;;;;;;;;12.70;93.10;;;;;;4989660;28;19918;-70
2022/10/14 02:45:17;;;;;;;;;;;12.70;93.10;;;;;;4992397;28;19914;-70
2022/10/14 02:47:42;;;;;;;;;;;12.70;93.10;;;;;;4990648;28;20133;-69
2022/10/14 02:50:08;;;;;;;;;;;12.70;93.10;;;;;;5001212;28;20024;-70
2022/10/14 02:52:33;;;;;;;;;;;12.70;93.20;;;;;;4993889;28;19948;-69
2022/10/14 02:54:59;;;;;;;;;;;12.70;93.20;;;;;;4992001;28;19964;-70
2022/10/14 02:57:24;;;;;;;;;;;12.70;93.20;;;;;;4988335;28;20433;-70
2022/10/14 02:59:50;;;;;;;;;;;12.70;93.10;;;;;;4990036;28;20005;-69
2022/10/14 03:02:15;;;;;;;;;;;12.70;93.10;;;;;;4990164;28;20367;-70
2022/10/14 03:04:41;;;;;;;;;;;12.70;93.10;;;;;;4993910;28;20334;-69
2022/10/14 03:07:06;;;;;;;;;;;12.70;93.10;;;;;;4989249;28;19993;-69
2022/10/14 03:09:32;;;;;;;;;;;12.70;93.10;;;;;;4993642;28;19921;-69
2022/10/14 03:11:57;;;;;;;;;;;12.70;93.20;;;;;;4988089;28;19961;-69
2022/10/14 03:14:23;;;;;;;;;;;12.70;93.20;;;;;;4986450;28;20662;-70
2022/10/14 03:16:49;;;;;;;;;;;12.70;93.20;;;;;;4989385;28;19920;-69
2022/10/14 03:19:14;;;;;;;;;;;12.70;93.10;;;;;;4987638;28;19925;-70
2022/10/14 03:21:40;;;;;;;;;;;12.70;93.10;;;;;;4997068;28;19913;-70
2022/10/14 03:24:05;;;;;;;;;;;12.70;93.20;;;;;;4991483;28;20413;-70
2022/10/14 03:26:31;;;;;;;;;;;12.70;93.20;;;;;;4993780;28;19923;-69
2022/10/14 03:28:56;;;;;;;;;;;12.70;93.20;;;;;;4988651;28;19928;-70
2022/10/14 03:31:22;;;;;;;;;;;12.70;93.20;;;;;;5000995;28;19919;-69
2022/10/14 03:33:47;;;;;;;;;;;12.70;93.20;;;;;;4992994;28;19941;-69
2022/10/14 03:36:13;;;;;;;;;;;12.70;93.20;;;;;;4999170;28;19914;-70
2022/10/14 03:38:38;;;;;;;;;;;12.70;93.20;;;;;;4993920;28;19933;-69
2022/10/14 03:41:04;;;;;;;;;;;12.60;93.10;;;;;;4999952;28;19956;-69
2022/10/14 03:43:29;;;;;;;;;;;12.70;93.20;;;;;;4992446;28;20401;-70
2022/10/14 03:45:55;;;;;;;;;;;12.70;93.20;;;;;;4988027;28;19920;-70
2022/10/14 03:48:21;;;;;;;;;;;12.70;93.20;;;;;;4998814;28;20354;-69
2022/10/14 03:50:47;;;;;;;;;;;12.60;93.10;;;;;;4988157;28;20472;-69
2022/10/14 03:53:13;;;;;;;;;;;12.60;93.20;;;;;;4988027;28;19922;-70
2022/10/14 03:55:38;;;;;;;;;;;12.70;93.20;;;;;;4989269;28;20441;-70
2022/10/14 03:58:04;;;;;;;;;;;12.70;93.20;;;;;;4996945;28;19916;-70
2022/10/14 04:00:29;;;;;;;;;;;12.70;93.20;;;;;;4986231;28;20565;-70
2022/10/14 04:02:55;;;;;;;;;;;12.60;93.20;;;;;;4990182;28;19913;-69
2022/10/14 04:05:20;;;;;;;;;;;12.70;93.20;;;;;;4986566;28;19949;-69
2022/10/14 04:07:46;;;;;;;;;;;12.70;93.20;;;;;;4992219;28;19922;-69
2022/10/14 04:10:11;;;;;;;;;;;12.70;93.20;;;;;;4990257;28;20008;-70
2022/10/14 04:12:39;;;;;;;;;;;12.70;93.30;;;;;;4994385;28;20000;-70
2022/10/14 04:15:05;;;;;;;;;;;12.70;93.20;;;;;;4986746;28;20012;-69
2022/10/14 04:17:31;;;;;;;;;;;12.60;93.20;;;;;;4992539;28;19953;-70
2022/10/14 04:19:57;;;;;;;;;;;12.70;93.20;;;;;;4985222;28;20684;-70
2022/10/14 04:22:22;;;;;;;;;;;12.60;93.20;;;;;;4991624;28;20009;-69
2022/10/14 04:24:48;;;;;;;;;;;12.70;93.20;;;;;;4990540;28;19936;-69
2022/10/14 04:27:14;;;;;;;;;;;12.70;93.30;;;;;;4987807;28;20444;-69
2022/10/14 04:29:39;;;;;;;;;;;12.60;93.20;;;;;;4989976;28;20013;-70
2022/10/14 04:32:05;;;;;;;;;;;12.60;93.20;;;;;;4987502;28;20515;-70
2022/10/14 04:34:30;;;;;;;;;;;12.60;93.20;;;;;;4990045;28;20505;-70
2022/10/14 04:36:56;;;;;;;;;;;12.70;93.20;;;;;;4992631;28;19917;-70
2022/10/14 04:39:21;;;;;;;;;;;12.60;93.20;;;;;;4994877;28;19921;-70
2022/10/14 04:41:47;;;;;;;;;;;12.60;93.20;;;;;;4993844;28;20087;-69
2022/10/14 04:44:12;;;;;;;;;;;12.60;93.20;;;;;;4989218;28;19914;-69
2022/10/14 04:46:38;;;;;;;;;;;12.60;93.20;;;;;;4984938;28;19922;-69
2022/10/14 04:49:03;;;;;;;;;;;12.60;93.20;;;;;;4987115;28;20516;-69
2022/10/14 04:51:29;;;;;;;;;;;12.60;93.20;;;;;;4988929;28;19917;-69
2022/10/14 04:53:56;;;;;;;;;;;12.60;93.20;;;;;;4994385;28;20627;-70
2022/10/14 04:56:21;;;;;;;;;;;12.60;93.20;;;;;;4991885;28;19914;-69
2022/10/14 04:58:47;;;;;;;;;;;12.60;93.20;;;;;;4996527;28;19914;-69
2022/10/14 05:01:12;;;;;;;;;;;12.60;93.20;;;;;;4996907;28;19937;-69
2022/10/14 05:03:38;;;;;;;;;;;12.60;93.20;;;;;;4991166;28;19988;-69
2022/10/14 05:06:03;;;;;;;;;;;12.60;93.20;;;;;;4987951;28;19929;-69
2022/10/14 05:08:29;;;;;;;;;;;12.60;93.20;;;;;;4988299;28;19972;-69
2022/10/14 05:10:54;;;;;;;;;;;12.60;93.20;;;;;;4990502;28;19918;-69
2022/10/14 05:13:20;;;;;;;;;;;12.60;93.20;;;;;;4985052;28;19928;-69
2022/10/14 05:15:46;;;;;;;;;;;12.60;93.20;;;;;;4989412;28;19913;-69
2022/10/14 05:18:12;;;;;;;;;;;12.60;93.20;;;;;;4989743;28;19918;-69
2022/10/14 05:20:37;;;;;;;;;;;12.60;93.20;;;;;;4991430;28;19944;-69
2022/10/14 05:23:03;;;;;;;;;;;12.60;93.20;;;;;;4987988;28;19918;-69
2022/10/14 05:25:29;;;;;;;;;;;12.60;93.20;;;;;;4991460;28;19910;-69
2022/10/14 05:27:54;;;;;;;;;;;12.60;93.20;;;;;;4989059;28;19922;-69
2022/10/14 05:30:20;;;;;;;;;;;12.60;93.20;;;;;;4992902;28;19918;-69
2022/10/14 05:32:45;;;;;;;;;;;12.60;93.20;;;;;;4992049;28;20541;-69
2022/10/14 05:35:11;;;;;;;;;;;12.60;93.20;;;;;;4985910;28;19922;-69
2022/10/14 05:37:36;;;;;;;;;;;12.60;93.20;;;;;;4991030;28;19921;-69
2022/10/14 05:40:02;;;;;;;;;;;12.60;93.20;;;;;;4988730;28;20589;-69
2022/10/14 05:42:27;;;;;;;;;;;12.60;93.30;;;;;;4988462;28;19917;-69
2022/10/14 05:44:53;;;;;;;;;;;12.60;93.30;;;;;;4991505;28;19914;-69
2022/10/14 05:47:18;;;;;;;;;;;12.60;93.30;;;;;;4984768;28;19913;-70
2022/10/14 05:49:44;;;;;;;;;;;12.60;93.30;;;;;;4984086;28;19925;-69
2022/10/14 05:52:09;;;;;;;;;;;12.60;93.30;;;;;;4991963;28;19917;-69
2022/10/14 05:54:35;;;;;;;;;;;12.60;93.30;;;;;;4984367;28;19965;-70
2022/10/14 05:57:01;;;;;;;;;;;12.60;93.30;;;;;;4992815;28;19921;-70
2022/10/14 05:59:28;;;;;;;;;;;12.60;93.30;;;;;;4988817;28;20029;-69
2022/10/14 06:01:54;;;;;;;;;;;12.60;93.30;;;;;;4984754;28;19926;-69
2022/10/14 06:04:20;;;;;;;;;;;12.60;93.30;;;;;;4988797;28;19925;-69
2022/10/14 06:06:45;;;;;;;;;;;12.60;93.20;;;;;;4989136;28;19960;-69
2022/10/14 06:09:11;;;;;;;;;;;12.60;93.20;;;;;;4986684;28;19953;-69
2022/10/14 06:11:37;;;;;;;;;;;12.60;93.30;;;;;;4986423;28;20382;-70
2022/10/14 06:14:02;;;;;;;;;;;12.60;93.20;;;;;;4992775;28;19945;-69
2022/10/14 06:16:28;;;;;;;;;;;12.60;93.20;;;;;;4983497;28;19925;-70
2022/10/14 06:18:53;;;;;;;;;;;12.60;93.30;;;;;;4991397;28;19914;-70
2022/10/14 06:21:19;;;;;;;;;;;12.60;93.30;;;;;;4986522;28;19918;-69
2022/10/14 06:23:44;;;;;;;;;;;12.60;93.30;;;;;;4999560;28;19921;-69
2022/10/14 06:26:09;;;;;;;;;;;12.70;93.30;;;;;;4991612;28;19917;-69
2022/10/14 06:28:35;;;;;;;;;;;12.70;93.20;;;;;;4997661;28;19925;-69
2022/10/14 06:31:01;;;;;;;;;;;12.70;93.20;;;;;;4988524;28;20002;-69
2022/10/14 06:33:27;;;;;;;;;;;12.70;93.20;;;;;;4988474;28;19924;-69
2022/10/14 06:35:53;;;;;;;;;;;12.70;93.20;;;;;;4983884;28;20618;-69
2022/10/14 06:38:18;;;;;;;;;;;12.70;93.20;;;;;;4987968;28;19910;-70
2022/10/14 06:40:43;;;;;;;;;;;12.70;93.20;;;;;;4982921;28;20066;-69
2022/10/14 06:43:09;;;;;;;;;;;12.70;93.30;;;;;;4994668;28;19925;-69
2022/10/14 06:45:34;;;;;;;;;;;12.70;93.20;;;;;;4996017;28;19971;-68
2022/10/14 06:48:00;;;;;;;;;;;12.70;93.20;;;;;;4992779;28;19914;-69
2022/10/14 06:50:25;;;;;;;;;;;12.70;93.20;;;;;;5004021;28;19921;-69
2022/10/14 06:52:51;;;;;;;;;;;12.70;93.20;;;;;;4986923;28;19928;-70
2022/10/14 06:55:17;;;;;;;;;;;12.70;93.20;;;;;;4989298;28;20314;-70
2022/10/14 06:57:42;;;;;;;;;;;12.70;93.20;;;;;;4995542;28;19957;-70
2022/10/14 07:00:08;;;;;;;;;;;12.80;93.20;;;;;;4995342;28;19940;-69
2022/10/14 07:02:34;;;;;;;;;;;12.80;93.30;;;;;;4997281;28;19940;-69
2022/10/14 07:04:59;;;;;;;;;;;12.80;93.30;;;;;;4994028;28;19913;-69
2022/10/14 07:07:25;;;;;;;;;;;12.80;93.30;;;;;;4990682;28;20448;-69
2022/10/14 07:09:50;;;;;;;;;;;12.80;93.30;;;;;;4991829;28;20558;-70
2022/10/14 07:12:16;;;;;;;;;;;12.80;93.30;;;;;;4993866;28;19922;-69
2022/10/14 07:14:41;;;;;;;;;;;12.80;93.40;;;;;;4997088;28;19913;-69
2022/10/14 07:17:07;;;;;;;;;;;12.80;93.40;;;;;;4995326;28;20565;-69
2022/10/14 07:19:33;;;;;;;;;;;12.90;93.40;;;;;;4991251;28;19959;-69
2022/10/14 07:21:58;;;;;;;;;;;12.90;93.40;;;;;;4988979;28;19940;-69
2022/10/14 07:24:24;;;;;;;;;;;12.90;93.40;;;;;;4987869;28;20516;-70
2022/10/14 07:26:50;;;;;;;;;;;12.90;93.40;;;;;;4989041;28;19917;-69
2022/10/14 07:29:15;;;;;;;;;;;13.00;93.40;;;;;;4993669;28;19945;-69
2022/10/14 07:31:41;;;;;;;;;;;13.00;93.40;;;;;;4995572;28;19921;-69
2022/10/14 07:34:06;;;;;;;;;;;13.00;93.30;;;;;;4988420;28;19918;-70
2022/10/14 07:36:32;;;;;;;;;;;13.00;93.30;;;;;;4996432;28;19913;-69
2022/10/14 07:38:57;;;;;;;;;;;13.00;93.50;;;;;;4991172;28;19922;-71
2022/10/14 07:41:23;;;;;;;;;;;13.00;93.30;;;;;;4995570;28;19914;-69
2022/10/14 07:43:50;;;;;;;;;;;13.10;93.60;;;;;;4987188;28;20349;-69
2022/10/14 07:46:28;;;;;;;;;;;13.10;93.40;;;;;;4992185;28;20671;-70
2022/10/14 07:48:54;;;;;;;;;;;13.10;93.40;;;;;;4990645;28;19918;-69
2022/10/14 07:51:20;;;;;;;;;;;13.10;93.30;;;;;;4993667;28;19914;-69
2022/10/14 07:53:47;;;;;;;;;;;13.10;93.60;;;;;;4990199;28;19928;-69
2022/10/14 07:56:12;;;;;;;;;;;13.10;93.30;;;;;;4991996;28;19914;-69
2022/10/14 07:58:37;;;;;;;;;;;13.10;93.40;;;;;;4992124;28;20437;-69
2022/10/14 08:01:03;;;;;;;;;;;13.10;93.40;;;;;;4997608;28;19913;-69
2022/10/14 08:03:28;;;;;;;;;;;13.20;93.50;;;;;;5002689;28;19913;-69
2022/10/14 08:05:59;;;;;;;;;;;13.20;93.50;;;;;;4992893;28;19918;-69
2022/10/14 08:08:24;;;;;;;;;;;13.20;93.50;;;;;;4995182;28;19914;-69
2022/10/14 08:10:58;;;;;;;;;;;13.20;93.50;;;;;;4989143;28;19938;-69
2022/10/14 08:13:23;;;;;;;;;;;13.30;93.50;;;;;;4983016;28;19924;-69
2022/10/14 08:15:49;;;;;;;;;;;13.30;93.60;;;;;;4991505;28;20008;-69
2022/10/14 08:18:14;;;;;;;;;;;13.30;93.30;;;;;;4994929;28;19914;-69
2022/10/14 08:20:40;;;;;;;;;;;13.30;93.40;;;;;;4991922;28;20007;-69
2022/10/14 08:23:06;;;;;;;;;;;13.40;93.40;;;;;;4999772;28;20521;-69
2022/10/14 08:25:31;;;;;;;;;;;13.40;93.40;;;;;;4988558;28;19937;-69
2022/10/14 08:27:57;;;;;;;;;;;13.40;93.30;;;;;;4986008;28;20519;-69
2022/10/14 08:30:24;;;;;;;;;;;13.40;93.30;;;;;;4985580;28;19995;-69
2022/10/14 08:32:49;;;;;;;;;;;13.40;93.50;;;;;;4993445;28;20059;-69
2022/10/14 08:35:15;;;;;;;;;;;13.50;93.40;;;;;;4986340;28;20012;-69
2022/10/14 08:37:40;;;;;;;;;;;13.50;93.40;;;;;;4992845;28;19914;-69
2022/10/14 08:40:06;;;;;;;;;;;13.50;93.30;;;;;;4987955;28;19921;-69
2022/10/14 08:42:39;;;;;;;;;;;13.50;93.30;;;;;;4987035;28;19921;-69
2022/10/14 08:45:15;;;;;;;;;;;13.50;93.30;;;;;;4989917;28;19918;-69
2022/10/14 08:47:44;;;;;;;;;;;13.60;93.20;;;;;;4994179;28;20326;-69
2022/10/14 08:50:12;;;;;;;;;;;13.60;93.20;;;;;;4999299;28;19913;-69
2022/10/14 08:52:40;;;;;;;;;;;13.60;93.30;;;;;;4989052;28;19950;-69
2022/10/14 08:55:26;;;;;;;;;;;13.60;93.10;;;;;;4990522;28;19924;-69
2022/10/14 08:57:54;;;;;;;;;;;13.70;93.60;;;;;;4984607;28;19928;-70
2022/10/14 09:00:20;;;;;;;;;;;13.70;93.30;;;;;;4990331;28;20578;-70
2022/10/14 09:02:47;;;;;;;;;;;13.70;93.10;;;;;;4990635;28;19920;-70
2022/10/14 09:05:17;;;;;;;;;;;13.70;93.10;;;;;;4992406;28;19922;-70
2022/10/14 09:07:44;;;;;;;;;;;13.70;93.00;;;;;;4990200;28;19941;-70
2022/10/14 09:10:13;;;;;;;;;;;13.80;93.10;;;;;;4990972;28;20402;-70
2022/10/14 09:12:39;;;;;;;;;;;13.80;93.20;;;;;;4986299;28;19937;-70
2022/10/14 09:15:25;;;;;;;;;;;13.80;93.10;;;;;;4990912;28;19917;-70
2022/10/14 09:17:56;;;;;;;;;;;13.80;92.80;;;;;;4987204;28;20400;-70
2022/10/14 09:20:23;;;;;;;;;;;13.80;92.80;;;;;;4995595;28;20455;-69
2022/10/14 09:23:18;;;;;;;;;;;13.90;92.80;;;;;;4984608;28;20012;-69
2022/10/14 09:25:54;;;;;;;;;;;13.90;92.90;;;;;;4993548;28;19914;-69
2022/10/14 09:28:21;;;;;;;;;;;13.90;93.20;;;;;;4990111;28;19941;-69
2022/10/14 09:30:46;;;;;;;;;;;13.90;93.00;;;;;;4989074;28;20480;-70
2022/10/14 09:33:16;;;;;;;;;;;14.00;92.90;;;;;;4985635;28;19928;-70
2022/10/14 09:35:42;;;;;;;;;;;14.00;92.70;;;;;;4992702;28;19914;-70
2022/10/14 09:38:09;;;;;;;;;;;14.00;92.70;;;;;;4987935;28;19945;-69
2022/10/14 09:40:36;;;;;;;;;;;14.00;92.70;;;;;;4989417;28;20000;-70
2022/10/14 09:43:01;;;;;;;;;;;14.10;92.80;;;;;;4992668;28;19922;-69
2022/10/14 09:45:29;;;;;;;;;;;14.10;92.90;;;;;;4991123;28;19921;-69
2022/10/14 09:48:02;;;;;;;;;;;14.10;92.90;;;;;;4987009;28;20601;-70
2022/10/14 09:50:28;;;;;;;;;;;14.20;93.10;;;;;;4991487;28;20359;-69
2022/10/14 09:52:56;;;;;;;;;;;14.30;93.00;;;;;;4986662;28;19924;-70
2022/10/14 09:55:23;;;;;;;;;;;14.30;92.90;;;;;;4992144;28;20370;-70
2022/10/14 09:57:57;;;;;;;;;;;14.40;93.00;;;;;;4990431;28;19957;-70
2022/10/14 10:00:24;;;;;;;;;;;14.40;92.70;;;;;;4999835;28;19922;-69
2022/10/14 10:02:51;;;;;;;;;;;14.50;92.60;;;;;;4988573;28;20032;-70
2022/10/14 10:05:17;;;;;;;;;;;14.50;92.90;;;;;;4992486;28;19919;-69
2022/10/14 10:07:42;;;;;;;;;;;14.50;92.60;;;;;;4989537;28;19921;-69
2022/10/14 10:10:19;;;;;;;;;;;14.60;92.80;;;;;;4989135;28;19925;-69
2022/10/14 10:12:46;;;;;;;;;;;14.60;92.50;;;;;;4997004;28;19918;-70
2022/10/14 10:15:18;;;;;;;;;;;14.60;92.30;;;;;;4985299;28;19918;-70
2022/10/14 10:17:46;;;;;;;;;;;14.70;92.40;;;;;;4991521;28;19917;-69
2022/10/14 10:20:17;;;;;;;;;;;14.70;92.50;;;;;;4988709;28;19922;-70
2022/10/14 10:22:43;;;;;;;;;;;14.70;92.50;;;;;;4990584;28;19917;-69
2022/10/14 10:25:09;;;;;;;;;;;14.70;92.40;;;;;;4990777;28;20374;-70
2022/10/14 10:27:35;;;;;;;;;;;14.80;92.60;;;;;;5001746;28;19924;-70
2022/10/14 10:30:13;;;;;;;;;;;14.70;92.40;;;;;;4989422;28;20549;-70
2022/10/14 10:32:41;;;;;;;;;;;14.80;92.30;;;;;;4990870;28;19921;-70
2022/10/14 10:35:19;;;;;;;;;;;14.80;92.50;;;;;;4990654;28;20378;-69
2022/10/14 10:38:05;;;;;;;;;;;14.80;92.50;;;;;;4994773;28;19924;-70
2022/10/14 10:40:40;;;;;;;;;;;14.80;92.50;;;;;;4989941;28;19925;-69
2022/10/14 10:43:18;;;;;;;;;;;14.80;92.50;;;;;;4997068;28;19918;-70
2022/10/14 10:45:44;;;;;;;;;;;14.90;92.40;;;;;;4993393;28;19943;-70
2022/10/14 10:48:23;;;;;;;;;;;14.90;92.50;;;;;;4995529;28;19914;-69
2022/10/14 10:50:48;;;;;;;;;;;14.90;92.70;;;;;;4991187;28;20497;-70
2022/10/14 10:53:23;;;;;;;;;;;14.90;92.60;;;;;;4996536;28;19921;-70
2022/10/14 10:55:58;;;;;;;;;;;15.00;92.50;;;;;;4990840;28;19961;-70
2022/10/14 10:58:40;;;;;;;;;;;15.00;92.60;;;;;;4989092;28;20013;-70
2022/10/14 11:01:12;;;;;;;;;;;15.00;92.30;;;;;;4987653;28;19972;-69
2022/10/14 11:03:53;;;;;;;;;;;15.00;92.40;;;;;;4994437;28;19927;-70
2022/10/14 11:12:11;;;;;;;;;;;15.10;92.50;;;;;;4991157;28;19928;-70
2022/10/14 11:14:37;;;;;;;;;;;15.00;92.60;;;;;;4991476;28;19949;-70
2022/10/14 11:17:13;;;;;;;;;;;15.10;92.70;;;;;;4988230;28;20423;-70
2022/10/14 11:19:38;;;;;;;;;;;15.10;92.70;;;;;;4998584;28;20526;-70
2022/10/14 11:22:04;;;;;;;;;;;15.10;92.60;;;;;;4998038;28;19917;-69
2022/10/14 11:24:57;;;;;;;;;;;15.20;92.80;;;;;;4991224;28;20578;-70
2022/10/14 11:27:31;;;;;;;;;;;15.20;92.60;;;;;;4986333;28;19928;-69
2022/10/14 11:30:24;;;;;;;;;;;15.30;92.50;;;;;;4989537;28;19921;-70
2022/10/14 11:32:59;;;;;;;;;;;15.30;92.50;;;;;;4986010;28;20000;-70
2022/10/14 11:35:34;;;;;;;;;;;15.30;92.50;;;;;;4987396;28;19932;-70
2022/10/14 11:38:09;;;;;;;;;;;15.30;92.60;;;;;;4982671;28;19945;-70
2022/10/14 11:40:41;;;;;;;;;;;15.30;92.60;;;;;;4994589;28;20454;-69
2022/10/14 11:43:25;;;;;;;;;;;15.40;92.40;;;;;;4983858;28;19940;-70
2022/10/14 11:45:59;;;;;;;;;;;15.40;92.40;;;;;;4998551;28;19921;-70
2022/10/14 11:48:38;;;;;;;;;;;15.40;92.40;;;;;;4987863;28;20256;-70
2022/10/14 11:51:07;;;;;;;;;;;15.40;92.40;;;;;;4991399;28;19921;-70
2022/10/14 11:53:35;;;;;;;;;;;15.40;92.40;;;;;;4989949;28;20486;-70
2022/10/14 11:56:03;;;;;;;;;;;15.50;92.40;;;;;;5002587;28;19929;-70
2022/10/14 11:58:31;;;;;;;;;;;15.40;92.50;;;;;;4991187;28;19921;-70
2022/10/14 12:00:59;;;;;;;;;;;15.50;92.50;;;;;;4994425;28;19917;-70
2022/10/14 12:03:33;;;;;;;;;;;15.40;92.40;;;;;;4988370;28;19957;-70
2022/10/14 12:06:05;;;;;;;;;;;15.50;92.50;;;;;;4992376;28;20625;-70
2022/10/14 12:08:30;;;;;;;;;;;15.50;92.50;;;;;;4984554;28;19925;-70
2022/10/14 12:11:05;;;;;;;;;;;15.50;92.60;;;;;;4992504;28;19922;-69
2022/10/14 12:13:37;;;;;;;;;;;15.50;92.40;;;;;;4989615;28;19923;-70
2022/10/14 12:16:04;;;;;;;;;;;15.50;92.40;;;;;;4998672;28;20382;-70
2022/10/14 12:18:31;;;;;;;;;;;15.50;92.60;;;;;;4991000;28;19914;-70
2022/10/14 12:21:16;;;;;;;;;;;15.50;92.70;;;;;;4993290;28;20053;-70
2022/10/14 12:23:46;;;;;;;;;;;15.50;92.80;;;;;;4991048;28;19992;-70
2022/10/14 12:26:18;;;;;;;;;;;15.50;92.50;;;;;;4990802;28;20016;-70
2022/10/14 12:28:45;;;;;;;;;;;15.50;92.50;;;;;;5001236;28;19910;-70
2022/10/14 12:31:20;;;;;;;;;;;15.50;92.60;;;;;;4987382;28;20659;-70
2022/10/14 12:34:04;;;;;;;;;;;15.50;92.80;;;;;;4991918;28;20193;-70
2022/10/14 12:36:30;;;;;;;;;;;15.40;92.90;;;;;;4985199;28;19960;-70
2022/10/14 12:39:15;;;;;;;;;;;15.40;93.00;;;;;;4992311;28;19914;-71
2022/10/14 12:41:42;;;;;;;;;;;15.40;93.10;;;;;;4996064;28;19924;-71
2022/10/14 12:44:13;;;;;;;;;;;15.40;93.20;;;;;;4991022;28;20048;-70
2022/10/14 12:46:42;;;;;;;;;;;15.40;93.20;;;;;;4988542;28;19922;-69
2022/10/14 12:49:15;;;;;;;;;;;15.40;93.20;;;;;;4993044;28;20363;-70
2022/10/14 12:51:51;;;;;;;;;;;15.40;93.20;;;;;;4985302;28;19918;-70
2022/10/14 12:54:17;;;;;;;;;;;15.40;93.20;;;;;;4994665;28;19921;-70
2022/10/14 12:56:52;;;;;;;;;;;15.40;93.10;;;;;;4994656;28;20385;-70
2022/10/14 12:59:21;;;;;;;;;;;15.40;93.20;;;;;;4994261;28;20466;-70
2022/10/14 13:01:52;;;;;;;;;;;15.40;93.30;;;;;;4987138;28;19918;-70
2022/10/14 13:04:18;;;;;;;;;;;15.40;93.20;;;;;;4999180;28;19920;-70
2022/10/14 13:06:43;;;;;;;;;;;15.40;93.10;;;;;;4984175;28;19918;-70
2022/10/14 13:09:12;;;;;;;;;;;15.40;93.10;;;;;;4988803;28;19945;-70
2022/10/14 13:11:38;;;;;;;;;;;15.40;93.10;;;;;;4984193;28;19957;-70
2022/10/14 13:14:25;;;;;;;;;;;15.30;93.40;;;;;;4990112;28;21726;-69
2022/10/14 13:16:51;;;;;;;;;;;15.30;93.20;;;;;;4989916;28;20518;-70
2022/10/14 13:19:31;;;;;;;;;;;15.30;93.30;;;;;;4992245;28;19924;-70
2022/10/14 13:21:58;;;;;;;;;;;15.30;93.20;;;;;;4991267;28;19921;-70
2022/10/14 13:24:31;;;;;;;;;;;15.30;93.20;;;;;;4998018;28;19913;-70
2022/10/14 13:27:01;;;;;;;;;;;15.30;93.20;;;;;;4984679;28;20015;-70
2022/10/14 13:29:46;;;;;;;;;;;15.30;93.30;;;;;;4997290;28;20012;-70
2022/10/14 13:32:23;;;;;;;;;;;15.30;93.30;;;;;;4990245;28;20012;-70
2022/10/14 13:34:48;;;;;;;;;;;15.30;93.30;;;;;;4994739;28;19924;-70
2022/10/14 13:37:31;;;;;;;;;;;15.30;93.30;;;;;;4993451;28;19917;-70
2022/10/14 13:39:58;;;;;;;;;;;15.30;93.30;;;;;;4993034;28;19913;-69
2022/10/14 13:42:25;;;;;;;;;;;15.30;93.30;;;;;;4989262;28;19918;-70
2022/10/14 13:44:52;;;;;;;;;;;15.30;93.40;;;;;;4990046;28;20012;-70
2022/10/14 13:47:19;;;;;;;;;;;15.30;93.30;;;;;;4983033;28;19917;-70
2022/10/14 13:49:45;;;;;;;;;;;15.30;93.30;;;;;;4986820;28;19914;-70
2022/10/14 13:52:17;;;;;;;;;;;15.30;93.40;;;;;;4984556;28;20000;-69
2022/10/14 13:54:42;;;;;;;;;;;15.20;93.40;;;;;;4988726;28;20371;-69
2022/10/14 13:57:10;;;;;;;;;;;15.20;93.50;;;;;;4994103;28;19968;-70
2022/10/14 13:59:38;;;;;;;;;;;15.20;93.40;;;;;;4996394;28;20012;-70
2022/10/14 14:02:08;;;;;;;;;;;15.20;93.50;;;;;;4990748;28;20538;-69
2022/10/14 14:04:35;;;;;;;;;;;15.20;93.50;;;;;;4998502;28;19968;-69
2022/10/14 14:07:00;;;;;;;;;;;15.20;93.50;;;;;;4994494;28;19964;-70
2022/10/14 14:09:28;;;;;;;;;;;15.20;93.50;;;;;;4989866;28;19948;-70
2022/10/14 14:11:56;;;;;;;;;;;15.20;93.50;;;;;;4991214;28;20342;-70
2022/10/14 14:14:40;;;;;;;;;;;15.20;93.60;;;;;;4991118;28;20697;-70
2022/10/14 14:17:10;;;;;;;;;;;15.10;93.50;;;;;;4993215;28;20013;-70
2022/10/14 14:19:36;;;;;;;;;;;15.10;93.40;;;;;;4995423;28;19921;-70
2022/10/14 14:22:14;;;;;;;;;;;15.10;93.40;;;;;;4996424;28;19921;-70
2022/10/14 14:24:39;;;;;;;;;;;15.10;93.40;;;;;;4987135;28;19918;-70
2022/10/14 14:27:09;;;;;;;;;;;15.10;93.40;;;;;;4996030;28;19925;-70
2022/10/14 14:29:35;;;;;;;;;;;15.10;93.40;;;;;;4989231;28;19969;-70